sensor_id;sensor_type;location;lat;lon;timestamp;P1;durP1;ratioP1;P2;durP2;ratioP2
59972;SDS011;55298;-36.624;-64.282;2022-12-07T00:01:42;17.88;;;3.85;;
59972;SDS011;55298;-36.624;-64.282;2022-12-07T00:04:14;19.90;;;3.58;;
59972;SDS011;55298;-36.624;-64.282;2022-12-07T00:06:44;16.88;;;4.00;;
59972;SDS011;55298;-36.624;-64.282;2022-12-07T00:09:18;24.30;;;3.83;;
59972;SDS011;55298;-36.624;-64.282;2022-12-07T00:11:48;18.42;;;3.42;;
59972;SDS011;55298;-36.624;-64.282;2022-12-07T00:14:17;18.13;;;3.75;;
59972;SDS011;55298;-36.624;-64.282;2022-12-07T00:16:45;15.80;;;3.90;;
59972;SDS011;55298;-36.624;-64.282;2022-12-07T00:19:16;24.92;;;4.85;;
59972;SDS011;55298;-36.624;-64.282;2022-12-07T00:21:45;17.75;;;4.07;;
59972;SDS011;55298;-36.624;-64.282;2022-12-07T00:24:14;20.42;;;5.07;;
59972;SDS011;55298;-36.624;-64.282;2022-12-07T00:29:36;26.88;;;5.13;;
59972;SDS011;55298;-36.624;-64.282;2022-12-07T00:32:04;14.48;;;4.22;;
59972;SDS011;55298;-36.624;-64.282;2022-12-07T00:34:31;20.83;;;4.30;;
59972;SDS011;55298;-36.624;-64.282;2022-12-07T00:36:59;15.32;;;4.13;;
59972;SDS011;55298;-36.624;-64.282;2022-12-07T00:39:26;16.38;;;3.55;;
59972;SDS011;55298;-36.624;-64.282;2022-12-07T00:41:54;19.40;;;3.50;;
59972;SDS011;55298;-36.624;-64.282;2022-12-07T00:44:23;13.70;;;2.55;;
59972;SDS011;55298;-36.624;-64.282;2022-12-07T00:46:54;8.82;;;2.80;;
59972;SDS011;55298;-36.624;-64.282;2022-12-07T00:49:23;17.35;;;2.60;;
59972;SDS011;55298;-36.624;-64.282;2022-12-07T00:51:50;16.10;;;2.88;;
59972;SDS011;55298;-36.624;-64.282;2022-12-07T00:54:18;16.20;;;2.53;;
59972;SDS011;55298;-36.624;-64.282;2022-12-07T00:56:46;11.82;;;2.70;;
59972;SDS011;55298;-36.624;-64.282;2022-12-07T00:59:16;18.13;;;3.38;;
59972;SDS011;55298;-36.624;-64.282;2022-12-07T01:01:47;16.77;;;3.60;;
59972;SDS011;55298;-36.624;-64.282;2022-12-07T01:04:18;11.20;;;3.55;;
59972;SDS011;55298;-36.624;-64.282;2022-12-07T01:06:45;14.73;;;3.22;;
59972;SDS011;55298;-36.624;-64.282;2022-12-07T01:09:13;15.70;;;3.65;;
59972;SDS011;55298;-36.624;-64.282;2022-12-07T01:11:42;11.98;;;2.97;;
59972;SDS011;55298;-36.624;-64.282;2022-12-07T01:14:12;17.85;;;2.88;;
59972;SDS011;55298;-36.624;-64.282;2022-12-07T01:16:40;14.02;;;3.25;;
59972;SDS011;55298;-36.624;-64.282;2022-12-07T01:19:08;14.35;;;3.28;;
59972;SDS011;55298;-36.624;-64.282;2022-12-07T01:21:35;18.85;;;3.53;;
59972;SDS011;55298;-36.624;-64.282;2022-12-07T01:24:06;11.73;;;2.22;;
59972;SDS011;55298;-36.624;-64.282;2022-12-07T01:26:38;15.13;;;2.75;;
59972;SDS011;55298;-36.624;-64.282;2022-12-07T01:29:06;7.43;;;2.45;;
59972;SDS011;55298;-36.624;-64.282;2022-12-07T01:31:33;16.52;;;2.80;;
59972;SDS011;55298;-36.624;-64.282;2022-12-07T01:34:02;10.02;;;2.80;;
59972;SDS011;55298;-36.624;-64.282;2022-12-07T01:36:31;10.90;;;2.35;;
59972;SDS011;55298;-36.624;-64.282;2022-12-07T01:39:04;7.25;;;2.22;;
59972;SDS011;55298;-36.624;-64.282;2022-12-07T01:41:36;10.50;;;2.95;;
59972;SDS011;55298;-36.624;-64.282;2022-12-07T01:46:57;9.65;;;2.58;;
59972;SDS011;55298;-36.624;-64.282;2022-12-07T01:49:31;6.55;;;1.83;;
59972;SDS011;55298;-36.624;-64.282;2022-12-07T01:52:22;7.15;;;1.75;;
59972;SDS011;55298;-36.624;-64.282;2022-12-07T01:54:58;6.45;;;1.60;;
59972;SDS011;55298;-36.624;-64.282;2022-12-07T01:57:30;6.03;;;1.63;;
59972;SDS011;55298;-36.624;-64.282;2022-12-07T02:00:01;5.47;;;1.40;;
59972;SDS011;55298;-36.624;-64.282;2022-12-07T02:02:32;6.63;;;1.42;;
59972;SDS011;55298;-36.624;-64.282;2022-12-07T02:05:04;3.92;;;1.17;;
59972;SDS011;55298;-36.624;-64.282;2022-12-07T02:07:34;4.65;;;1.30;;
59972;SDS011;55298;-36.624;-64.282;2022-12-07T02:10:12;3.67;;;1.10;;
59972;SDS011;55298;-36.624;-64.282;2022-12-07T02:12:44;4.35;;;1.30;;
59972;SDS011;55298;-36.624;-64.282;2022-12-07T02:15:16;3.50;;;1.05;;
59972;SDS011;55298;-36.624;-64.282;2022-12-07T02:17:52;4.10;;;1.17;;
59972;SDS011;55298;-36.624;-64.282;2022-12-07T02:20:37;8.30;;;1.25;;
59972;SDS011;55298;-36.624;-64.282;2022-12-07T02:23:24;3.47;;;1.30;;
59972;SDS011;55298;-36.624;-64.282;2022-12-07T02:26:12;5.43;;;1.20;;
59972;SDS011;55298;-36.624;-64.282;2022-12-07T02:29:10;4.22;;;1.30;;
59972;SDS011;55298;-36.624;-64.282;2022-12-07T02:31:51;2.47;;;1.00;;
59972;SDS011;55298;-36.624;-64.282;2022-12-07T02:34:46;3.08;;;1.20;;
59972;SDS011;55298;-36.624;-64.282;2022-12-07T02:37:29;4.82;;;1.42;;
59972;SDS011;55298;-36.624;-64.282;2022-12-07T02:40:10;8.20;;;1.67;;
59972;SDS011;55298;-36.624;-64.282;2022-12-07T02:42:47;2.65;;;1.00;;
59972;SDS011;55298;-36.624;-64.282;2022-12-07T02:45:21;4.32;;;1.20;;
59972;SDS011;55298;-36.624;-64.282;2022-12-07T02:47:51;3.70;;;1.00;;
59972;SDS011;55298;-36.624;-64.282;2022-12-07T02:50:24;4.15;;;1.20;;
59972;SDS011;55298;-36.624;-64.282;2022-12-07T02:52:54;3.22;;;1.10;;
59972;SDS011;55298;-36.624;-64.282;2022-12-07T02:55:25;3.05;;;1.30;;
59972;SDS011;55298;-36.624;-64.282;2022-12-07T02:58:12;6.75;;;1.25;;
59972;SDS011;55298;-36.624;-64.282;2022-12-07T03:00:55;5.47;;;1.30;;
59972;SDS011;55298;-36.624;-64.282;2022-12-07T03:03:47;3.25;;;1.20;;
59972;SDS011;55298;-36.624;-64.282;2022-12-07T03:06:25;5.30;;;1.25;;
59972;SDS011;55298;-36.624;-64.282;2022-12-07T03:09:04;11.90;;;1.52;;
59972;SDS011;55298;-36.624;-64.282;2022-12-07T03:11:52;4.65;;;1.95;;
59972;SDS011;55298;-36.624;-64.282;2022-12-07T03:14:34;6.45;;;1.30;;
59972;SDS011;55298;-36.624;-64.282;2022-12-07T03:17:10;5.30;;;1.10;;
59972;SDS011;55298;-36.624;-64.282;2022-12-07T03:19:44;5.15;;;1.40;;
59972;SDS011;55298;-36.624;-64.282;2022-12-07T03:22:13;4.05;;;1.25;;
59972;SDS011;55298;-36.624;-64.282;2022-12-07T03:24:45;7.43;;;1.30;;
59972;SDS011;55298;-36.624;-64.282;2022-12-07T03:27:20;6.95;;;1.30;;
59972;SDS011;55298;-36.624;-64.282;2022-12-07T03:30:01;5.22;;;1.35;;
59972;SDS011;55298;-36.624;-64.282;2022-12-07T03:32:50;10.80;;;1.48;;
59972;SDS011;55298;-36.624;-64.282;2022-12-07T03:35:31;6.05;;;1.35;;
59972;SDS011;55298;-36.624;-64.282;2022-12-07T03:38:19;6.72;;;1.50;;
59972;SDS011;55298;-36.624;-64.282;2022-12-07T03:40:52;5.25;;;1.85;;
59972;SDS011;55298;-36.624;-64.282;2022-12-07T03:43:41;5.57;;;1.42;;
59972;SDS011;55298;-36.624;-64.282;2022-12-07T03:51:54;5.75;;;1.50;;
59972;SDS011;55298;-36.624;-64.282;2022-12-07T03:57:35;4.63;;;1.40;;
59972;SDS011;55298;-36.624;-64.282;2022-12-07T04:00:06;5.20;;;1.40;;
59972;SDS011;55298;-36.624;-64.282;2022-12-07T04:02:39;8.90;;;1.58;;
59972;SDS011;55298;-36.624;-64.282;2022-12-07T04:05:11;7.90;;;1.60;;
59972;SDS011;55298;-36.624;-64.282;2022-12-07T04:07:40;8.27;;;1.55;;
59972;SDS011;55298;-36.624;-64.282;2022-12-07T04:10:08;9.70;;;1.67;;
59972;SDS011;55298;-36.624;-64.282;2022-12-07T04:12:36;8.55;;;1.73;;
59972;SDS011;55298;-36.624;-64.282;2022-12-07T04:15:05;9.82;;;1.90;;
59972;SDS011;55298;-36.624;-64.282;2022-12-07T04:17:34;6.88;;;1.60;;
59972;SDS011;55298;-36.624;-64.282;2022-12-07T04:20:03;5.05;;;1.52;;
59972;SDS011;55298;-36.624;-64.282;2022-12-07T04:22:32;7.75;;;1.50;;
59972;SDS011;55298;-36.624;-64.282;2022-12-07T04:25:00;7.22;;;1.48;;
59972;SDS011;55298;-36.624;-64.282;2022-12-07T04:27:32;5.43;;;1.60;;
59972;SDS011;55298;-36.624;-64.282;2022-12-07T04:30:07;6.25;;;1.70;;
59972;SDS011;55298;-36.624;-64.282;2022-12-07T04:32:55;5.50;;;1.50;;
59972;SDS011;55298;-36.624;-64.282;2022-12-07T04:35:24;5.07;;;1.30;;
59972;SDS011;55298;-36.624;-64.282;2022-12-07T04:37:53;7.20;;;1.55;;
59972;SDS011;55298;-36.624;-64.282;2022-12-07T04:40:21;7.43;;;1.70;;
59972;SDS011;55298;-36.624;-64.282;2022-12-07T04:42:54;7.32;;;1.58;;
59972;SDS011;55298;-36.624;-64.282;2022-12-07T04:45:21;10.98;;;1.70;;
59972;SDS011;55298;-36.624;-64.282;2022-12-07T04:47:49;7.35;;;1.50;;
59972;SDS011;55298;-36.624;-64.282;2022-12-07T04:50:18;9.75;;;1.65;;
59972;SDS011;55298;-36.624;-64.282;2022-12-07T04:52:47;6.55;;;1.70;;
59972;SDS011;55298;-36.624;-64.282;2022-12-07T04:55:15;6.35;;;1.63;;
59972;SDS011;55298;-36.624;-64.282;2022-12-07T04:57:46;9.65;;;1.90;;
59972;SDS011;55298;-36.624;-64.282;2022-12-07T05:00:17;5.80;;;1.40;;
59972;SDS011;55298;-36.624;-64.282;2022-12-07T05:02:46;9.38;;;1.88;;
59972;SDS011;55298;-36.624;-64.282;2022-12-07T05:05:15;9.80;;;1.50;;
59972;SDS011;55298;-36.624;-64.282;2022-12-07T05:07:43;8.55;;;1.80;;
59972;SDS011;55298;-36.624;-64.282;2022-12-07T05:10:12;5.60;;;1.65;;
59972;SDS011;55298;-36.624;-64.282;2022-12-07T05:12:39;9.77;;;2.00;;
59972;SDS011;55298;-36.624;-64.282;2022-12-07T05:15:08;8.85;;;1.83;;
59972;SDS011;55298;-36.624;-64.282;2022-12-07T05:17:36;12.52;;;2.05;;
59972;SDS011;55298;-36.624;-64.282;2022-12-07T05:20:04;7.07;;;1.30;;
59972;SDS011;55298;-36.624;-64.282;2022-12-07T05:22:36;7.78;;;1.75;;
59972;SDS011;55298;-36.624;-64.282;2022-12-07T05:25:05;6.95;;;1.67;;
59972;SDS011;55298;-36.624;-64.282;2022-12-07T05:27:34;4.97;;;1.60;;
59972;SDS011;55298;-36.624;-64.282;2022-12-07T05:30:02;8.02;;;1.38;;
59972;SDS011;55298;-36.624;-64.282;2022-12-07T05:32:32;6.78;;;1.75;;
59972;SDS011;55298;-36.624;-64.282;2022-12-07T05:35:04;7.90;;;1.95;;
59972;SDS011;55298;-36.624;-64.282;2022-12-07T05:37:34;7.60;;;1.77;;
59972;SDS011;55298;-36.624;-64.282;2022-12-07T05:40:02;8.77;;;1.77;;
59972;SDS011;55298;-36.624;-64.282;2022-12-07T05:42:30;6.38;;;1.85;;
59972;SDS011;55298;-36.624;-64.282;2022-12-07T05:44:58;10.30;;;1.83;;
59972;SDS011;55298;-36.624;-64.282;2022-12-07T05:47:26;7.97;;;1.80;;
59972;SDS011;55298;-36.624;-64.282;2022-12-07T05:49:55;9.80;;;1.70;;
59972;SDS011;55298;-36.624;-64.282;2022-12-07T05:52:23;6.55;;;1.67;;
59972;SDS011;55298;-36.624;-64.282;2022-12-07T05:54:51;7.28;;;1.63;;
59972;SDS011;55298;-36.624;-64.282;2022-12-07T05:57:21;6.88;;;1.60;;
59972;SDS011;55298;-36.624;-64.282;2022-12-07T05:59:51;5.05;;;1.50;;
59972;SDS011;55298;-36.624;-64.282;2022-12-07T06:02:18;7.32;;;1.67;;
59972;SDS011;55298;-36.624;-64.282;2022-12-07T06:04:46;5.43;;;1.60;;
59972;SDS011;55298;-36.624;-64.282;2022-12-07T06:07:15;8.40;;;1.80;;
59972;SDS011;55298;-36.624;-64.282;2022-12-07T06:09:44;8.00;;;1.85;;
59972;SDS011;55298;-36.624;-64.282;2022-12-07T06:12:12;4.47;;;1.48;;
59972;SDS011;55298;-36.624;-64.282;2022-12-07T06:14:50;6.10;;;1.52;;
59972;SDS011;55298;-36.624;-64.282;2022-12-07T06:17:19;5.53;;;1.60;;
59972;SDS011;55298;-36.624;-64.282;2022-12-07T06:19:47;7.07;;;1.67;;
59972;SDS011;55298;-36.624;-64.282;2022-12-07T06:22:14;8.73;;;2.10;;
59972;SDS011;55298;-36.624;-64.282;2022-12-07T06:24:43;6.13;;;2.15;;
59972;SDS011;55298;-36.624;-64.282;2022-12-07T06:27:12;7.47;;;1.70;;
59972;SDS011;55298;-36.624;-64.282;2022-12-07T06:29:41;3.67;;;1.77;;
59972;SDS011;55298;-36.624;-64.282;2022-12-07T06:32:09;3.45;;;1.48;;
59972;SDS011;55298;-36.624;-64.282;2022-12-07T06:34:38;4.32;;;1.55;;
59972;SDS011;55298;-36.624;-64.282;2022-12-07T06:37:07;8.95;;;1.55;;
59972;SDS011;55298;-36.624;-64.282;2022-12-07T06:39:34;8.05;;;2.13;;
59972;SDS011;55298;-36.624;-64.282;2022-12-07T06:42:02;6.78;;;1.40;;
59972;SDS011;55298;-36.624;-64.282;2022-12-07T06:44:29;9.60;;;1.83;;
59972;SDS011;55298;-36.624;-64.282;2022-12-07T06:46:58;9.93;;;1.73;;
59972;SDS011;55298;-36.624;-64.282;2022-12-07T06:49:25;7.13;;;2.50;;
59972;SDS011;55298;-36.624;-64.282;2022-12-07T06:51:53;4.63;;;1.42;;
59972;SDS011;55298;-36.624;-64.282;2022-12-07T06:54:20;7.00;;;1.80;;
59972;SDS011;55298;-36.624;-64.282;2022-12-07T06:56:48;4.72;;;1.73;;
59972;SDS011;55298;-36.624;-64.282;2022-12-07T06:59:15;3.97;;;1.65;;
59972;SDS011;55298;-36.624;-64.282;2022-12-07T07:01:43;9.45;;;2.65;;
59972;SDS011;55298;-36.624;-64.282;2022-12-07T07:04:11;5.75;;;1.80;;
59972;SDS011;55298;-36.624;-64.282;2022-12-07T07:06:38;7.10;;;2.30;;
59972;SDS011;55298;-36.624;-64.282;2022-12-07T07:09:07;7.57;;;1.80;;
59972;SDS011;55298;-36.624;-64.282;2022-12-07T07:11:35;5.20;;;1.65;;
59972;SDS011;55298;-36.624;-64.282;2022-12-07T07:14:02;5.30;;;1.30;;
59972;SDS011;55298;-36.624;-64.282;2022-12-07T07:16:30;4.25;;;1.60;;
59972;SDS011;55298;-36.624;-64.282;2022-12-07T07:18:58;5.57;;;1.85;;
59972;SDS011;55298;-36.624;-64.282;2022-12-07T07:21:26;8.05;;;1.50;;
59972;SDS011;55298;-36.624;-64.282;2022-12-07T07:23:54;4.60;;;1.40;;
59972;SDS011;55298;-36.624;-64.282;2022-12-07T07:26:22;6.90;;;1.70;;
59972;SDS011;55298;-36.624;-64.282;2022-12-07T07:28:50;4.28;;;1.50;;
59972;SDS011;55298;-36.624;-64.282;2022-12-07T07:31:17;4.22;;;1.30;;
59972;SDS011;55298;-36.624;-64.282;2022-12-07T07:33:46;6.15;;;1.48;;
59972;SDS011;55298;-36.624;-64.282;2022-12-07T07:36:13;6.32;;;1.55;;
59972;SDS011;55298;-36.624;-64.282;2022-12-07T07:38:42;5.20;;;1.58;;
59972;SDS011;55298;-36.624;-64.282;2022-12-07T07:41:11;6.65;;;2.15;;
59972;SDS011;55298;-36.624;-64.282;2022-12-07T07:43:38;7.18;;;1.50;;
59972;SDS011;55298;-36.624;-64.282;2022-12-07T07:46:06;4.38;;;1.85;;
59972;SDS011;55298;-36.624;-64.282;2022-12-07T07:48:36;4.95;;;1.60;;
59972;SDS011;55298;-36.624;-64.282;2022-12-07T07:51:06;4.97;;;1.60;;
59972;SDS011;55298;-36.624;-64.282;2022-12-07T07:53:35;7.70;;;1.98;;
59972;SDS011;55298;-36.624;-64.282;2022-12-07T07:56:02;4.43;;;1.42;;
59972;SDS011;55298;-36.624;-64.282;2022-12-07T07:58:32;4.40;;;1.73;;
59972;SDS011;55298;-36.624;-64.282;2022-12-07T08:01:03;6.68;;;1.92;;
59972;SDS011;55298;-36.624;-64.282;2022-12-07T08:03:32;7.13;;;1.60;;
59972;SDS011;55298;-36.624;-64.282;2022-12-07T08:06:01;3.35;;;1.65;;
59972;SDS011;55298;-36.624;-64.282;2022-12-07T08:08:29;5.10;;;1.50;;
59972;SDS011;55298;-36.624;-64.282;2022-12-07T08:10:57;5.63;;;1.83;;
59972;SDS011;55298;-36.624;-64.282;2022-12-07T08:13:26;5.05;;;1.70;;
59972;SDS011;55298;-36.624;-64.282;2022-12-07T08:15:54;5.93;;;1.60;;
59972;SDS011;55298;-36.624;-64.282;2022-12-07T08:18:22;6.13;;;1.70;;
59972;SDS011;55298;-36.624;-64.282;2022-12-07T08:20:49;2.92;;;1.50;;
59972;SDS011;55298;-36.624;-64.282;2022-12-07T08:23:17;5.13;;;1.70;;
59972;SDS011;55298;-36.624;-64.282;2022-12-07T08:25:44;5.57;;;1.92;;
59972;SDS011;55298;-36.624;-64.282;2022-12-07T08:28:12;2.20;;;1.55;;
59972;SDS011;55298;-36.624;-64.282;2022-12-07T08:30:40;5.50;;;1.73;;
59972;SDS011;55298;-36.624;-64.282;2022-12-07T08:33:09;5.25;;;1.70;;
59972;SDS011;55298;-36.624;-64.282;2022-12-07T08:35:36;6.75;;;2.20;;
59972;SDS011;55298;-36.624;-64.282;2022-12-07T08:38:05;6.03;;;2.30;;
59972;SDS011;55298;-36.624;-64.282;2022-12-07T08:40:33;2.88;;;1.70;;
59972;SDS011;55298;-36.624;-64.282;2022-12-07T08:43:01;5.68;;;1.92;;
59972;SDS011;55298;-36.624;-64.282;2022-12-07T08:45:30;4.47;;;2.10;;
59972;SDS011;55298;-36.624;-64.282;2022-12-07T08:48:08;6.45;;;1.60;;
59972;SDS011;55298;-36.624;-64.282;2022-12-07T08:50:39;7.00;;;2.00;;
59972;SDS011;55298;-36.624;-64.282;2022-12-07T08:53:07;7.45;;;1.83;;
59972;SDS011;55298;-36.624;-64.282;2022-12-07T08:55:34;6.65;;;1.88;;
59972;SDS011;55298;-36.624;-64.282;2022-12-07T08:58:03;8.55;;;1.80;;
59972;SDS011;55298;-36.624;-64.282;2022-12-07T09:00:31;5.00;;;1.90;;
59972;SDS011;55298;-36.624;-64.282;2022-12-07T09:02:59;5.43;;;1.55;;
59972;SDS011;55298;-36.624;-64.282;2022-12-07T09:05:26;7.10;;;1.90;;
59972;SDS011;55298;-36.624;-64.282;2022-12-07T09:07:56;5.65;;;1.90;;
59972;SDS011;55298;-36.624;-64.282;2022-12-07T09:10:27;5.65;;;2.10;;
59972;SDS011;55298;-36.624;-64.282;2022-12-07T09:12:55;6.45;;;1.95;;
59972;SDS011;55298;-36.624;-64.282;2022-12-07T09:15:28;5.53;;;2.00;;
59972;SDS011;55298;-36.624;-64.282;2022-12-07T09:17:56;7.97;;;1.92;;
59972;SDS011;55298;-36.624;-64.282;2022-12-07T09:20:24;7.35;;;1.85;;
59972;SDS011;55298;-36.624;-64.282;2022-12-07T09:22:52;4.22;;;1.92;;
59972;SDS011;55298;-36.624;-64.282;2022-12-07T09:25:19;8.07;;;2.58;;
59972;SDS011;55298;-36.624;-64.282;2022-12-07T09:27:48;6.70;;;2.42;;
59972;SDS011;55298;-36.624;-64.282;2022-12-07T09:30:23;6.03;;;1.80;;
59972;SDS011;55298;-36.624;-64.282;2022-12-07T09:32:53;7.88;;;2.10;;
59972;SDS011;55298;-36.624;-64.282;2022-12-07T09:35:22;6.35;;;1.60;;
59972;SDS011;55298;-36.624;-64.282;2022-12-07T09:37:50;5.28;;;1.90;;
59972;SDS011;55298;-36.624;-64.282;2022-12-07T09:40:19;4.95;;;1.88;;
59972;SDS011;55298;-36.624;-64.282;2022-12-07T09:42:49;5.32;;;1.80;;
59972;SDS011;55298;-36.624;-64.282;2022-12-07T09:45:22;3.58;;;1.80;;
59972;SDS011;55298;-36.624;-64.282;2022-12-07T09:47:53;3.10;;;1.70;;
59972;SDS011;55298;-36.624;-64.282;2022-12-07T09:50:23;6.68;;;2.22;;
59972;SDS011;55298;-36.624;-64.282;2022-12-07T09:52:53;5.20;;;1.73;;
59972;SDS011;55298;-36.624;-64.282;2022-12-07T09:55:33;6.95;;;2.80;;
59972;SDS011;55298;-36.624;-64.282;2022-12-07T09:58:03;7.78;;;2.35;;
59972;SDS011;55298;-36.624;-64.282;2022-12-07T10:00:30;6.63;;;2.35;;
59972;SDS011;55298;-36.624;-64.282;2022-12-07T10:02:59;6.20;;;1.90;;
59972;SDS011;55298;-36.624;-64.282;2022-12-07T10:05:36;8.05;;;2.00;;
59972;SDS011;55298;-36.624;-64.282;2022-12-07T10:08:12;6.13;;;2.13;;
59972;SDS011;55298;-36.624;-64.282;2022-12-07T10:10:43;7.95;;;2.33;;
59972;SDS011;55298;-36.624;-64.282;2022-12-07T10:13:12;7.88;;;2.17;;
59972;SDS011;55298;-36.624;-64.282;2022-12-07T10:15:43;9.02;;;3.25;;
59972;SDS011;55298;-36.624;-64.282;2022-12-07T10:21:20;5.97;;;1.90;;
59972;SDS011;55298;-36.624;-64.282;2022-12-07T10:26:30;8.70;;;2.10;;
59972;SDS011;55298;-36.624;-64.282;2022-12-07T10:29:21;9.50;;;1.95;;
59972;SDS011;55298;-36.624;-64.282;2022-12-07T10:32:32;6.32;;;2.08;;
59972;SDS011;55298;-36.624;-64.282;2022-12-07T10:38:07;8.27;;;2.80;;
59972;SDS011;55298;-36.624;-64.282;2022-12-07T10:40:45;4.72;;;1.92;;
59972;SDS011;55298;-36.624;-64.282;2022-12-07T10:43:18;7.95;;;2.20;;
59972;SDS011;55298;-36.624;-64.282;2022-12-07T10:51:27;7.75;;;2.10;;
59972;SDS011;55298;-36.624;-64.282;2022-12-07T10:57:31;13.27;;;4.85;;
59972;SDS011;55298;-36.624;-64.282;2022-12-07T11:00:19;8.90;;;1.90;;
59972;SDS011;55298;-36.624;-64.282;2022-12-07T11:03:38;6.70;;;2.10;;
59972;SDS011;55298;-36.624;-64.282;2022-12-07T11:08:57;10.23;;;2.38;;
59972;SDS011;55298;-36.624;-64.282;2022-12-07T11:11:45;7.80;;;1.77;;
59972;SDS011;55298;-36.624;-64.282;2022-12-07T11:14:29;7.68;;;1.90;;
59972;SDS011;55298;-36.624;-64.282;2022-12-07T11:17:14;9.80;;;2.10;;
59972;SDS011;55298;-36.624;-64.282;2022-12-07T11:20:01;8.73;;;2.30;;
59972;SDS011;55298;-36.624;-64.282;2022-12-07T11:23:11;9.77;;;2.33;;
59972;SDS011;55298;-36.624;-64.282;2022-12-07T11:25:55;7.60;;;2.35;;
59972;SDS011;55298;-36.624;-64.282;2022-12-07T11:37:36;9.88;;;2.15;;
59972;SDS011;55298;-36.624;-64.282;2022-12-07T11:40:20;9.40;;;2.00;;
59972;SDS011;55298;-36.624;-64.282;2022-12-07T11:45:47;5.22;;;1.95;;
59972;SDS011;55298;-36.624;-64.282;2022-12-07T11:51:12;11.38;;;2.50;;
59972;SDS011;55298;-36.624;-64.282;2022-12-07T11:53:43;10.82;;;2.83;;
59972;SDS011;55298;-36.624;-64.282;2022-12-07T11:56:16;37.17;;;5.25;;
59972;SDS011;55298;-36.624;-64.282;2022-12-07T11:59:01;11.45;;;3.08;;
59972;SDS011;55298;-36.624;-64.282;2022-12-07T12:01:53;6.15;;;2.58;;
59972;SDS011;55298;-36.624;-64.282;2022-12-07T12:04:34;8.20;;;2.30;;
59972;SDS011;55298;-36.624;-64.282;2022-12-07T12:07:17;5.43;;;2.10;;
59972;SDS011;55298;-36.624;-64.282;2022-12-07T12:09:54;11.80;;;2.20;;
59972;SDS011;55298;-36.624;-64.282;2022-12-07T12:12:39;6.93;;;1.98;;
59972;SDS011;55298;-36.624;-64.282;2022-12-07T12:15:29;6.05;;;2.05;;
59972;SDS011;55298;-36.624;-64.282;2022-12-07T12:18:28;14.52;;;3.65;;
59972;SDS011;55298;-36.624;-64.282;2022-12-07T12:21:08;12.52;;;2.90;;
59972;SDS011;55298;-36.624;-64.282;2022-12-07T12:23:44;7.82;;;2.40;;
59972;SDS011;55298;-36.624;-64.282;2022-12-07T12:26:21;10.82;;;2.88;;
59972;SDS011;55298;-36.624;-64.282;2022-12-07T12:34:58;8.10;;;1.90;;
59972;SDS011;55298;-36.624;-64.282;2022-12-07T12:37:41;10.57;;;4.22;;
59972;SDS011;55298;-36.624;-64.282;2022-12-07T12:57:41;6.78;;;2.72;;
59972;SDS011;55298;-36.624;-64.282;2022-12-07T13:00:21;12.02;;;2.80;;
59972;SDS011;55298;-36.624;-64.282;2022-12-07T13:02:56;6.88;;;2.17;;
59972;SDS011;55298;-36.624;-64.282;2022-12-07T13:05:27;6.85;;;2.08;;
59972;SDS011;55298;-36.624;-64.282;2022-12-07T13:08:02;10.85;;;3.47;;
59972;SDS011;55298;-36.624;-64.282;2022-12-07T13:10:44;69.43;;;13.27;;
59972;SDS011;55298;-36.624;-64.282;2022-12-07T13:13:29;27.15;;;5.30;;
59972;SDS011;55298;-36.624;-64.282;2022-12-07T13:18:55;36.00;;;7.20;;
59972;SDS011;55298;-36.624;-64.282;2022-12-07T13:24:12;15.23;;;3.40;;
59972;SDS011;55298;-36.624;-64.282;2022-12-07T13:26:42;11.73;;;2.60;;
59972;SDS011;55298;-36.624;-64.282;2022-12-07T13:29:12;12.45;;;3.03;;
59972;SDS011;55298;-36.624;-64.282;2022-12-07T13:31:47;11.50;;;2.90;;
59972;SDS011;55298;-36.624;-64.282;2022-12-07T13:37:14;9.02;;;2.67;;
59972;SDS011;55298;-36.624;-64.282;2022-12-07T13:39:56;6.05;;;2.38;;
59972;SDS011;55298;-36.624;-64.282;2022-12-07T13:42:29;7.70;;;2.42;;
59972;SDS011;55298;-36.624;-64.282;2022-12-07T13:45:00;10.38;;;2.38;;
59972;SDS011;55298;-36.624;-64.282;2022-12-07T13:47:49;8.43;;;2.17;;
59972;SDS011;55298;-36.624;-64.282;2022-12-07T13:50:27;7.15;;;2.22;;
59972;SDS011;55298;-36.624;-64.282;2022-12-07T13:52:59;7.72;;;2.47;;
59972;SDS011;55298;-36.624;-64.282;2022-12-07T13:55:29;26.23;;;4.95;;
59972;SDS011;55298;-36.624;-64.282;2022-12-07T13:57:57;11.23;;;3.22;;
59972;SDS011;55298;-36.624;-64.282;2022-12-07T14:00:26;7.50;;;2.60;;
59972;SDS011;55298;-36.624;-64.282;2022-12-07T14:02:57;8.48;;;2.40;;
59972;SDS011;55298;-36.624;-64.282;2022-12-07T14:05:31;8.55;;;2.20;;
59972;SDS011;55298;-36.624;-64.282;2022-12-07T14:08:05;22.27;;;4.05;;
59972;SDS011;55298;-36.624;-64.282;2022-12-07T14:10:55;9.43;;;3.33;;
59972;SDS011;55298;-36.624;-64.282;2022-12-07T14:13:34;5.90;;;2.20;;
59972;SDS011;55298;-36.624;-64.282;2022-12-07T14:16:33;8.45;;;2.40;;
59972;SDS011;55298;-36.624;-64.282;2022-12-07T14:19:06;9.27;;;2.47;;
59972;SDS011;55298;-36.624;-64.282;2022-12-07T14:22:09;6.13;;;2.63;;
59972;SDS011;55298;-36.624;-64.282;2022-12-07T14:27:55;6.88;;;2.83;;
59972;SDS011;55298;-36.624;-64.282;2022-12-07T14:30:31;7.72;;;2.95;;
59972;SDS011;55298;-36.624;-64.282;2022-12-07T14:33:02;8.40;;;2.97;;
59972;SDS011;55298;-36.624;-64.282;2022-12-07T14:35:36;9.88;;;3.38;;
59972;SDS011;55298;-36.624;-64.282;2022-12-07T14:38:09;8.80;;;2.50;;
59972;SDS011;55298;-36.624;-64.282;2022-12-07T14:40:38;7.60;;;2.13;;
59972;SDS011;55298;-36.624;-64.282;2022-12-07T14:43:10;9.20;;;2.97;;
59972;SDS011;55298;-36.624;-64.282;2022-12-07T14:45:49;9.25;;;2.70;;
59972;SDS011;55298;-36.624;-64.282;2022-12-07T14:48:16;10.68;;;2.67;;
59972;SDS011;55298;-36.624;-64.282;2022-12-07T14:50:45;13.50;;;2.40;;
59972;SDS011;55298;-36.624;-64.282;2022-12-07T14:53:20;4.90;;;1.85;;
59972;SDS011;55298;-36.624;-64.282;2022-12-07T14:55:58;8.45;;;2.30;;
59972;SDS011;55298;-36.624;-64.282;2022-12-07T15:00:56;5.53;;;2.50;;
59972;SDS011;55298;-36.624;-64.282;2022-12-07T15:03:25;8.95;;;2.42;;
59972;SDS011;55298;-36.624;-64.282;2022-12-07T15:05:53;6.68;;;2.60;;
59972;SDS011;55298;-36.624;-64.282;2022-12-07T15:08:22;5.78;;;2.50;;
59972;SDS011;55298;-36.624;-64.282;2022-12-07T15:10:54;12.50;;;3.13;;
59972;SDS011;55298;-36.624;-64.282;2022-12-07T15:13:22;16.95;;;2.55;;
59972;SDS011;55298;-36.624;-64.282;2022-12-07T15:16:00;9.40;;;2.15;;
59972;SDS011;55298;-36.624;-64.282;2022-12-07T15:18:28;9.65;;;2.50;;
59972;SDS011;55298;-36.624;-64.282;2022-12-07T15:20:55;9.40;;;2.00;;
59972;SDS011;55298;-36.624;-64.282;2022-12-07T15:23:25;23.17;;;3.15;;
59972;SDS011;55298;-36.624;-64.282;2022-12-07T15:25:53;18.65;;;3.83;;
59972;SDS011;55298;-36.624;-64.282;2022-12-07T15:28:22;11.20;;;1.98;;
59972;SDS011;55298;-36.624;-64.282;2022-12-07T15:30:51;8.05;;;2.30;;
59972;SDS011;55298;-36.624;-64.282;2022-12-07T15:33:20;6.93;;;1.90;;
59972;SDS011;55298;-36.624;-64.282;2022-12-07T15:35:48;8.05;;;2.25;;
59972;SDS011;55298;-36.624;-64.282;2022-12-07T15:38:16;6.60;;;2.13;;
59972;SDS011;55298;-36.624;-64.282;2022-12-07T15:40:52;8.20;;;2.13;;
59972;SDS011;55298;-36.624;-64.282;2022-12-07T15:43:28;7.05;;;1.60;;
59972;SDS011;55298;-36.624;-64.282;2022-12-07T15:46:07;8.82;;;2.10;;
59972;SDS011;55298;-36.624;-64.282;2022-12-07T15:48:34;11.93;;;2.50;;
59972;SDS011;55298;-36.624;-64.282;2022-12-07T15:51:07;12.45;;;2.22;;
59972;SDS011;55298;-36.624;-64.282;2022-12-07T15:53:44;8.30;;;1.70;;
59972;SDS011;55298;-36.624;-64.282;2022-12-07T15:56:12;8.30;;;1.70;;
59972;SDS011;55298;-36.624;-64.282;2022-12-07T15:58:39;10.70;;;2.42;;
59972;SDS011;55298;-36.624;-64.282;2022-12-07T16:01:11;8.60;;;1.98;;
59972;SDS011;55298;-36.624;-64.282;2022-12-07T16:03:45;4.93;;;2.50;;
59972;SDS011;55298;-36.624;-64.282;2022-12-07T16:06:17;7.53;;;3.03;;